createdAt,value
2019-05-29T00:01:21.868Z,80.50
2019-05-29T00:04:26.570Z,80.50
2019-05-29T00:07:31.119Z,80.50
2019-05-29T00:10:35.664Z,80.50
2019-05-29T00:13:40.277Z,80.50
2019-05-29T00:16:44.801Z,80.40
2019-05-29T00:19:49.828Z,80.60
2019-05-29T00:22:54.370Z,80.70
2019-05-29T00:26:00.418Z,80.50
2019-05-29T00:29:05.656Z,80.50
2019-05-29T00:32:11.953Z,80.30
2019-05-29T00:35:16.671Z,80.40
2019-05-29T00:38:21.259Z,80.60
2019-05-29T00:41:25.806Z,80.60
2019-05-29T00:44:42.889Z,80.60
2019-05-29T00:47:36.639Z,80.80
2019-05-29T00:50:41.307Z,80.80
2019-05-29T00:53:45.850Z,81.00
2019-05-29T00:56:50.477Z,80.80
2019-05-29T00:59:54.950Z,80.70
2019-05-29T01:02:59.535Z,80.60
2019-05-29T01:06:04.099Z,80.80
2019-05-29T01:09:10.298Z,80.60
2019-05-29T01:12:14.845Z,80.50
2019-05-29T01:15:19.614Z,80.80
2019-05-29T01:18:24.229Z,80.80
2019-05-29T01:21:28.840Z,80.50
2019-05-29T01:24:33.390Z,80.50
2019-05-29T01:27:37.938Z,80.60
2019-05-29T01:30:42.566Z,80.60
2019-05-29T01:33:47.147Z,80.10
2019-05-29T01:36:51.658Z,80.50
2019-05-29T01:39:56.207Z,80.60
2019-05-29T01:43:00.839Z,80.60
2019-05-29T01:46:05.773Z,80.80
2019-05-29T01:49:10.391Z,80.30
2019-05-29T01:52:15.474Z,79.90
2019-05-29T01:55:20.129Z,79.80
2019-05-29T01:58:24.740Z,79.80
2019-05-29T02:01:29.232Z,79.70
2019-05-29T02:04:33.898Z,78.80
2019-05-29T02:07:38.507Z,78.60
2019-05-29T02:10:43.098Z,78.90
2019-05-29T02:13:47.613Z,79.40
2019-05-29T02:16:52.152Z,80.00
2019-05-29T02:19:56.790Z,80.00
2019-05-29T02:23:01.368Z,79.20
2019-05-29T02:26:06.005Z,78.80
2019-05-29T02:29:10.532Z,79.10
2019-05-29T02:32:17.528Z,79.30
2019-05-29T02:35:23.045Z,78.00
2019-05-29T02:38:29.109Z,78.30
2019-05-29T02:41:34.104Z,78.60
2019-05-29T02:44:38.828Z,79.00
2019-05-29T02:47:43.413Z,79.30
2019-05-29T02:50:47.970Z,79.80
2019-05-29T02:53:52.578Z,80.30
2019-05-29T02:56:57.127Z,80.90
2019-05-29T03:00:01.817Z,81.10
2019-05-29T03:03:06.399Z,80.80
2019-05-29T03:06:11.713Z,80.40
2019-05-29T03:09:16.287Z,79.80
2019-05-29T03:12:20.963Z,79.50
2019-05-29T03:15:25.722Z,79.70
2019-05-29T03:18:32.413Z,79.60
2019-05-29T03:21:36.903Z,79.40
2019-05-29T03:24:41.522Z,80.00
2019-05-29T03:27:46.036Z,80.30
2019-05-29T03:30:50.669Z,80.60
2019-05-29T03:33:55.522Z,80.20
2019-05-29T03:37:00.146Z,80.90
2019-05-29T03:40:05.034Z,80.20
2019-05-29T03:43:09.651Z,80.20
2019-05-29T03:46:29.777Z,80.60
2019-05-29T03:49:21.297Z,80.80
2019-05-29T03:52:26.342Z,80.70
2019-05-29T03:55:31.675Z,80.50
2019-05-29T03:58:37.952Z,80.70
2019-05-29T04:01:42.676Z,80.90
2019-05-29T04:04:47.189Z,81.10
2019-05-29T04:07:51.795Z,81.10
2019-05-29T04:10:56.325Z,81.10
2019-05-29T04:14:00.872Z,81.00
2019-05-29T04:17:06.886Z,81.30
2019-05-29T04:20:12.644Z,81.30
2019-05-29T04:23:19.086Z,81.20
2019-05-29T04:26:25.607Z,80.70
2019-05-29T04:29:31.744Z,80.90
2019-05-29T04:32:38.486Z,81.20
2019-05-29T04:35:43.307Z,80.30
2019-05-29T04:38:47.864Z,79.80
2019-05-29T04:41:52.358Z,80.20
2019-05-29T04:44:56.933Z,80.40
2019-05-29T04:48:01.576Z,80.90
2019-05-29T04:51:06.167Z,81.10
2019-05-29T04:54:10.763Z,81.10
2019-05-29T04:57:15.350Z,80.90
2019-05-29T05:00:19.954Z,81.00
2019-05-29T05:03:25.666Z,80.30
2019-05-29T05:06:31.192Z,79.90
2019-05-29T05:09:35.868Z,78.10
2019-05-29T05:12:41.350Z,79.00
2019-05-29T05:15:46.838Z,79.50
2019-05-29T05:18:51.380Z,79.00
2019-05-29T05:21:55.960Z,79.70
2019-05-29T05:25:02.006Z,80.10
2019-05-29T05:28:06.560Z,79.80
2019-05-29T05:31:11.555Z,80.50
2019-05-29T05:34:16.406Z,81.00
2019-05-29T05:37:21.037Z,81.20
2019-05-29T05:40:25.696Z,81.10
2019-05-29T05:43:30.691Z,81.30
2019-05-29T05:46:35.269Z,81.40
2019-05-29T05:49:39.909Z,81.60
2019-05-29T05:52:46.296Z,81.80
2019-05-29T05:55:50.956Z,81.80
2019-05-29T05:58:55.482Z,81.80
2019-05-29T06:02:00.102Z,82.20
2019-05-29T06:05:04.891Z,82.30
2019-05-29T06:08:09.427Z,82.30
2019-05-29T06:11:14.006Z,82.40
2019-05-29T06:14:18.590Z,82.50
2019-05-29T06:17:23.244Z,82.30
2019-05-29T06:20:27.798Z,82.20
2019-05-29T06:23:32.775Z,81.00
2019-05-29T06:26:37.491Z,81.70
2019-05-29T06:29:43.464Z,81.60
2019-05-29T06:32:48.187Z,81.90
2019-05-29T06:35:52.825Z,81.90
2019-05-29T06:38:57.374Z,82.30
2019-05-29T06:42:02.001Z,82.10
2019-05-29T06:45:07.302Z,82.20
2019-05-29T06:48:14.920Z,82.30
2019-05-29T06:51:19.536Z,82.70
2019-05-29T06:54:24.161Z,82.70
2019-05-29T06:57:28.716Z,82.60
2019-05-29T07:00:35.657Z,82.40
2019-05-29T07:03:39.722Z,82.10
2019-05-29T07:06:44.806Z,82.50
2019-05-29T07:09:49.931Z,83.30
2019-05-29T07:12:54.501Z,83.40
2019-05-29T07:15:59.196Z,83.60
2019-05-29T07:19:25.663Z,84.20
2019-05-29T07:22:10.181Z,83.60
2019-05-29T07:25:14.750Z,83.20
2019-05-29T07:28:19.342Z,81.70
2019-05-29T07:31:23.987Z,81.50
2019-05-29T07:34:28.509Z,81.60
2019-05-29T07:37:33.100Z,80.60
2019-05-29T07:40:38.406Z,80.70
2019-05-29T07:43:43.864Z,81.70
2019-05-29T07:46:48.881Z,82.80
2019-05-29T07:49:53.616Z,83.00
2019-05-29T07:52:58.391Z,82.10
2019-05-29T07:56:02.971Z,80.30
2019-05-29T07:59:07.893Z,81.10
2019-05-29T08:02:12.424Z,82.40
2019-05-29T08:05:18.278Z,81.40
2019-05-29T08:08:22.810Z,81.80
2019-05-29T08:11:27.475Z,81.60
2019-05-29T08:14:32.057Z,80.70
2019-05-29T08:17:36.664Z,80.80
2019-05-29T08:20:41.866Z,80.70
2019-05-29T08:23:46.616Z,80.80
2019-05-29T08:26:51.267Z,79.70
2019-05-29T08:29:55.927Z,80.00
2019-05-29T08:33:00.402Z,78.30
2019-05-29T08:36:05.011Z,79.00
2019-05-29T08:39:09.644Z,72.50
2019-05-29T08:42:23.650Z,77.10
2019-05-29T08:45:20.527Z,79.20
2019-05-29T08:48:28.211Z,75.80
2019-05-29T08:51:32.774Z,77.60
2019-05-29T08:54:37.364Z,78.40
2019-05-29T08:57:42.545Z,79.20
2019-05-29T09:00:50.542Z,79.40
2019-05-29T09:03:53.630Z,79.70
2019-05-29T09:06:58.445Z,76.20
2019-05-29T09:10:02.997Z,75.00
2019-05-29T09:13:07.607Z,76.50
2019-05-29T09:16:12.152Z,77.90
2019-05-29T09:19:16.864Z,75.80
2019-05-29T09:22:23.011Z,76.20
2019-05-29T09:25:27.677Z,75.90
2019-05-29T09:28:30.544Z,76.70
2019-05-29T09:31:35.091Z,74.70
2019-05-29T09:34:39.670Z,75.70
2019-05-29T09:37:44.211Z,77.00
2019-05-29T09:40:52.451Z,77.30
2019-05-29T09:43:59.608Z,78.50
2019-05-29T09:47:01.342Z,79.30
2019-05-29T09:50:06.113Z,78.20
2019-05-29T09:53:10.742Z,77.20
2019-05-29T09:56:15.278Z,76.90
2019-05-29T09:59:19.888Z,74.90
2019-05-29T10:02:24.452Z,70.00
2019-05-29T10:05:29.091Z,68.90
2019-05-29T10:08:33.635Z,69.80
2019-05-29T10:11:38.695Z,68.70
2019-05-29T10:14:43.381Z,73.40
2019-05-29T10:17:48.323Z,76.50
2019-05-29T10:20:52.897Z,76.10
2019-05-29T10:23:57.972Z,75.80
2019-05-29T10:27:05.278Z,77.80
2019-05-29T10:30:11.583Z,77.60
2019-05-29T10:33:16.552Z,74.00
2019-05-29T10:36:21.363Z,71.20
2019-05-29T10:39:26.328Z,70.40
2019-05-29T10:42:31.368Z,68.50
2019-05-29T10:45:36.237Z,71.10
2019-05-29T10:48:41.253Z,74.70
2019-05-29T10:52:00.435Z,73.80
2019-05-29T10:54:52.446Z,74.90
2019-05-29T10:57:57.083Z,74.80
2019-05-29T11:01:01.716Z,74.70
2019-05-29T11:04:06.547Z,73.30
2019-05-29T11:07:11.102Z,67.80
2019-05-29T11:10:16.118Z,64.20
2019-05-29T11:13:20.629Z,66.90
2019-05-29T11:16:25.735Z,66.70
2019-05-29T11:19:30.695Z,67.10
2019-05-29T11:22:35.720Z,68.30
2019-05-29T11:25:40.271Z,69.50
2019-05-29T11:28:45.906Z,70.00
2019-05-29T11:31:53.225Z,71.10
2019-05-29T11:34:58.003Z,71.30
2019-05-29T11:38:03.321Z,72.10
2019-05-29T11:41:25.152Z,73.30
2019-05-29T11:44:14.616Z,74.90
2019-05-29T11:47:19.963Z,75.40
2019-05-29T11:50:24.553Z,75.30
2019-05-29T11:53:29.574Z,77.10
2019-05-29T11:56:34.107Z,76.80
2019-05-29T11:59:38.637Z,77.60
2019-05-29T12:02:43.553Z,76.60
2019-05-29T12:05:48.615Z,75.50
2019-05-29T12:08:53.657Z,69.90
2019-05-29T12:12:00.325Z,69.80
2019-05-29T12:15:13.542Z,68.50
2019-05-29T12:18:23.336Z,70.70
2019-05-29T12:21:19.130Z,64.40
2019-05-29T12:24:23.643Z,61.70
2019-05-29T12:27:28.361Z,58.30
2019-05-29T12:30:33.599Z,63.00
2019-05-29T12:33:38.196Z,63.80
2019-05-29T12:36:42.694Z,67.30
2019-05-29T12:39:47.249Z,69.50
2019-05-29T12:42:53.585Z,71.60
2019-05-29T12:45:59.975Z,71.20
2019-05-29T12:49:04.906Z,71.30
2019-05-29T12:52:10.174Z,71.90
2019-05-29T12:55:15.456Z,73.10
2019-05-29T12:58:20.097Z,75.90
2019-05-29T13:01:24.667Z,77.70
2019-05-29T13:04:29.245Z,76.50
2019-05-29T13:07:37.226Z,73.50
2019-05-29T13:10:42.679Z,68.80
2019-05-29T13:13:47.644Z,63.70
2019-05-29T13:16:52.258Z,66.20
2019-05-29T13:20:02.580Z,64.20
2019-05-29T13:23:05.456Z,66.60
2019-05-29T13:26:10.498Z,64.10
2019-05-29T13:29:15.415Z,62.50
2019-05-29T13:32:19.991Z,67.70
2019-05-29T13:35:25.189Z,71.90
2019-05-29T13:38:29.710Z,71.40
2019-05-29T13:41:34.295Z,65.50
2019-05-29T13:44:43.852Z,66.30
2019-05-29T13:47:48.960Z,66.10
2019-05-29T13:50:53.882Z,68.00
2019-05-29T13:54:03.803Z,71.30
2019-05-29T13:57:06.543Z,67.30
2019-05-29T14:00:33.815Z,60.80
2019-05-29T14:03:20.504Z,65.30
2019-05-29T14:06:25.441Z,60.80
2019-05-29T14:09:30.468Z,63.10
2019-05-29T14:12:35.966Z,64.00
2019-05-29T14:15:40.984Z,64.40
2019-05-29T14:18:45.956Z,63.30
2019-05-29T14:21:51.535Z,66.90
2019-05-29T14:24:56.050Z,68.90
2019-05-29T14:28:00.814Z,69.30
2019-05-29T14:31:05.975Z,67.00
2019-05-29T14:34:10.977Z,67.00
2019-05-29T14:37:15.997Z,64.50
2019-05-29T14:40:21.233Z,66.20
2019-05-29T14:43:26.751Z,67.20
2019-05-29T14:46:31.967Z,66.70
2019-05-29T14:49:37.806Z,69.00
2019-05-29T14:52:44.059Z,59.80
2019-05-29T14:55:49.038Z,64.30
2019-05-29T14:58:53.625Z,65.60
2019-05-29T15:01:58.547Z,66.10
2019-05-29T15:05:03.757Z,66.10
2019-05-29T15:08:09.998Z,66.50
2019-05-29T15:11:15.308Z,67.40
2019-05-29T15:14:20.518Z,69.30
2019-05-29T15:17:25.123Z,70.40
2019-05-29T15:20:29.766Z,70.40
2019-05-29T15:23:34.308Z,69.80
2019-05-29T15:26:39.285Z,70.80
2019-05-29T15:29:43.887Z,70.70
2019-05-29T15:32:48.964Z,67.80
2019-05-29T15:35:53.759Z,62.90
2019-05-29T15:38:58.341Z,61.70
2019-05-29T15:42:02.862Z,63.40
2019-05-29T15:45:09.927Z,64.00
2019-05-29T15:48:15.281Z,64.40
2019-05-29T15:51:21.901Z,65.50
2019-05-29T15:54:26.189Z,66.90
2019-05-29T15:57:30.771Z,67.60
2019-05-29T16:00:35.339Z,68.00
2019-05-29T16:03:41.122Z,68.40
2019-05-29T16:06:45.708Z,68.10
2019-05-29T16:09:50.722Z,67.50
2019-05-29T16:12:55.843Z,68.10
2019-05-29T16:16:00.821Z,67.70
2019-05-29T16:19:06.013Z,67.40
2019-05-29T16:22:12.230Z,67.40
2019-05-29T16:25:17.075Z,67.20
2019-05-29T16:28:21.715Z,67.30
2019-05-29T16:31:26.276Z,67.40
2019-05-29T16:34:31.248Z,67.50
2019-05-29T16:37:36.164Z,67.70
2019-05-29T16:40:41.073Z,68.70
2019-05-29T16:43:46.270Z,68.40
2019-05-29T16:46:52.102Z,68.70
2019-05-29T16:49:56.703Z,69.20
2019-05-29T16:53:01.310Z,69.80
2019-05-29T16:56:06.688Z,70.40
2019-05-29T16:59:11.246Z,70.70
2019-05-29T17:02:17.739Z,70.90
2019-05-29T17:05:24.146Z,71.10
2019-05-29T17:08:29.214Z,71.00
2019-05-29T17:11:34.166Z,70.90
2019-05-29T17:14:40.525Z,71.30
2019-05-29T17:17:45.193Z,70.90
2019-05-29T17:20:50.118Z,71.10
2019-05-29T17:23:54.703Z,70.90
2019-05-29T17:26:59.351Z,70.60
2019-05-29T17:30:05.503Z,70.40
2019-05-29T17:33:10.037Z,70.50
2019-05-29T17:36:14.893Z,70.20
2019-05-29T17:39:21.371Z,70.00
2019-05-29T17:42:26.758Z,69.80
2019-05-29T17:45:31.340Z,69.80
2019-05-29T17:48:35.956Z,69.50
2019-05-29T17:51:40.565Z,69.50
2019-05-29T17:54:45.141Z,69.40
2019-05-29T17:57:50.213Z,69.70
2019-05-29T18:00:55.020Z,69.90
2019-05-29T18:03:59.728Z,70.00
2019-05-29T18:07:05.119Z,70.30
2019-05-29T18:10:10.208Z,70.30
2019-05-29T18:13:15.128Z,70.50
2019-05-29T18:16:19.769Z,70.30
2019-05-29T18:19:25.911Z,70.40
2019-05-29T18:22:31.294Z,70.40
2019-05-29T18:25:35.823Z,70.50
2019-05-29T18:28:40.802Z,70.60
2019-05-29T18:31:45.370Z,70.70
2019-05-29T18:34:53.649Z,70.60
2019-05-29T18:38:00.379Z,70.50
2019-05-29T18:41:05.303Z,70.30
2019-05-29T18:44:09.971Z,70.10
2019-05-29T18:47:14.550Z,69.50
2019-05-29T18:50:21.518Z,69.10
2019-05-29T18:53:27.219Z,69.40
2019-05-29T18:56:32.329Z,69.30
2019-05-29T18:59:36.861Z,69.40
2019-05-29T19:02:41.453Z,69.30
2019-05-29T19:05:46.370Z,69.10
2019-05-29T19:08:51.329Z,69.30
2019-05-29T19:11:55.881Z,69.20
2019-05-29T19:15:00.477Z,69.20
2019-05-29T19:18:05.152Z,69.30
2019-05-29T19:21:09.716Z,69.30
2019-05-29T19:24:14.603Z,69.00
2019-05-29T19:27:31.166Z,68.90
2019-05-29T19:30:27.017Z,68.50
2019-05-29T19:33:31.668Z,68.20
2019-05-29T19:36:37.730Z,67.90
2019-05-29T19:39:45.621Z,67.70
2019-05-29T19:42:50.235Z,67.80
2019-05-29T19:45:54.884Z,67.80
2019-05-29T19:48:59.748Z,67.70
2019-05-29T19:52:04.495Z,67.70
2019-05-29T19:55:09.598Z,67.80
2019-05-29T19:58:14.642Z,67.90
2019-05-29T20:01:30.735Z,68.00
2019-05-29T20:04:26.648Z,68.10
2019-05-29T20:07:31.660Z,68.20
2019-05-29T20:10:37.493Z,68.30
2019-05-29T20:13:42.120Z,68.40
2019-05-29T20:16:46.888Z,68.40
2019-05-29T20:19:51.807Z,68.50
2019-05-29T20:22:56.393Z,68.60
2019-05-29T20:26:01.696Z,68.80
2019-05-29T20:29:06.515Z,68.80
2019-05-29T20:32:11.501Z,68.90
2019-05-29T20:35:17.140Z,69.10
2019-05-29T20:38:22.172Z,69.30
2019-05-29T20:41:26.720Z,69.60
2019-05-29T20:44:32.611Z,69.60
2019-05-29T20:47:37.968Z,69.70
2019-05-29T20:50:43.506Z,69.60
2019-05-29T20:53:48.564Z,69.70
2019-05-29T20:56:53.602Z,69.60
2019-05-29T20:59:58.155Z,69.60
2019-05-29T21:03:03.475Z,69.70
2019-05-29T21:06:08.137Z,69.80
2019-05-29T21:09:12.966Z,69.70
2019-05-29T21:12:17.773Z,69.80
2019-05-29T21:15:22.804Z,69.70
2019-05-29T21:18:27.405Z,69.60
2019-05-29T21:21:32.311Z,69.70
2019-05-29T21:24:38.512Z,69.60
2019-05-29T21:27:48.777Z,69.60
2019-05-29T21:30:50.886Z,69.70
2019-05-29T21:33:55.795Z,69.60
2019-05-29T21:37:00.783Z,69.50
2019-05-29T21:40:06.029Z,69.50
2019-05-29T21:43:10.954Z,69.30
2019-05-29T21:46:15.569Z,69.20
2019-05-29T21:49:20.280Z,69.20
2019-05-29T21:52:24.896Z,69.20
2019-05-29T21:55:29.831Z,69.10
2019-05-29T21:58:34.744Z,69.20
2019-05-29T22:01:39.946Z,69.30
2019-05-29T22:04:44.653Z,69.30
2019-05-29T22:07:49.215Z,69.40
2019-05-29T22:10:55.268Z,69.50
2019-05-29T22:14:00.684Z,69.40
2019-05-29T22:17:05.938Z,69.60
2019-05-29T22:20:10.716Z,69.50
2019-05-29T22:23:15.315Z,69.40
2019-05-29T22:26:19.901Z,69.40
2019-05-29T22:29:25.039Z,69.50
2019-05-29T22:32:29.631Z,69.60
2019-05-29T22:35:34.307Z,69.60
2019-05-29T22:38:39.274Z,69.70
2019-05-29T22:41:44.715Z,69.70
2019-05-29T22:44:49.296Z,69.70
2019-05-29T22:47:53.858Z,69.70
2019-05-29T22:50:58.410Z,69.80
2019-05-29T22:54:03.790Z,70.00
2019-05-29T22:57:09.168Z,70.10
2019-05-29T23:00:15.116Z,70.30
2019-05-29T23:03:20.018Z,70.40
2019-05-29T23:06:24.612Z,70.50
2019-05-29T23:09:29.194Z,70.70
2019-05-29T23:12:33.706Z,70.90
2019-05-29T23:15:39.059Z,70.80
2019-05-29T23:18:43.657Z,70.90
2019-05-29T23:21:48.226Z,71.00
2019-05-29T23:24:54.838Z,71.00
2019-05-29T23:28:00.969Z,71.10
2019-05-29T23:31:06.161Z,71.30
2019-05-29T23:34:10.746Z,71.40
2019-05-29T23:37:15.640Z,71.40
2019-05-29T23:40:20.180Z,71.40
2019-05-29T23:43:24.788Z,71.20
2019-05-29T23:46:29.916Z,71.40
2019-05-29T23:49:34.469Z,71.70
2019-05-29T23:52:39.191Z,71.70
2019-05-29T23:55:43.786Z,71.50
2019-05-29T23:58:48.331Z,71.10
